Fordville, North Dakota
Current Conditions -  °F | °C
As of 11:47 PM on Friday 26 Dec 2014 (Local Time) from KRDR Reporting Station
Overcast Overcast  
Wind Chill:   Ceiling: 600
Heat Index:   Visibility: 10mi
Dew Point:   Wind: 3mph
Humidity: 92%   Direction: 290°WNW
Pressure: 30.24"   Gusts: NA
Location:  48.22°N, 97.79°W
Report Text: KRDR 270547Z AUTO 29003KT 10SM OVC006 M17/M18 A3024 RMK AO2 SNB0501E0517
Loading
Personal Weather Stations






























Interactive Weather Map New forecast layout! Learn more

10-Day Weather Forecast

Advertisements
Track Severe Weather on mobile